createdAt,value
2018-08-16T00:00:58.957Z,17.64
2018-08-16T00:03:28.480Z,17.59
2018-08-16T00:05:58.496Z,17.54
2018-08-16T00:08:28.104Z,17.50
2018-08-16T00:10:57.655Z,17.46
2018-08-16T00:13:27.193Z,17.44
2018-08-16T00:15:56.708Z,17.43
2018-08-16T00:18:26.291Z,17.42
2018-08-16T00:20:55.868Z,17.41
2018-08-16T00:23:25.435Z,17.39
2018-08-16T00:25:54.964Z,17.38
2018-08-16T00:28:24.621Z,17.37
2018-08-16T00:30:54.213Z,17.34
2018-08-16T00:33:23.803Z,17.33
2018-08-16T00:35:53.444Z,17.34
2018-08-16T00:38:23.180Z,17.33
2018-08-16T00:40:52.801Z,17.33
2018-08-16T00:43:22.355Z,17.32
2018-08-16T00:45:51.942Z,17.32
2018-08-16T00:48:21.611Z,17.31
2018-08-16T00:50:51.222Z,17.27
2018-08-16T00:53:20.795Z,17.25
2018-08-16T00:55:50.441Z,17.22
2018-08-16T00:58:20.021Z,17.20
2018-08-16T01:00:49.756Z,17.17
2018-08-16T01:03:19.319Z,17.14
2018-08-16T01:05:48.936Z,17.14
2018-08-16T01:08:18.617Z,17.15
2018-08-16T01:10:48.392Z,17.15
2018-08-16T01:13:18.059Z,17.15
2018-08-16T01:15:47.816Z,17.14
2018-08-16T01:18:17.745Z,17.11
2018-08-16T01:20:47.421Z,17.12
2018-08-16T01:23:17.229Z,17.13
2018-08-16T01:25:46.889Z,17.12
2018-08-16T01:28:16.605Z,17.12
2018-08-16T01:30:46.330Z,17.15
2018-08-16T01:33:16.053Z,17.15
2018-08-16T01:35:45.819Z,17.13
2018-08-16T01:38:15.415Z,17.11
2018-08-16T01:40:45.142Z,17.11
2018-08-16T01:43:14.762Z,17.12
2018-08-16T01:45:44.444Z,17.13
2018-08-16T01:48:14.371Z,17.11
2018-08-16T01:50:44.013Z,17.09
2018-08-16T01:53:13.698Z,17.05
2018-08-16T01:55:43.305Z,17.02
2018-08-16T01:58:13.137Z,17.01
2018-08-16T02:00:42.813Z,17.00
2018-08-16T02:03:12.424Z,16.97
2018-08-16T02:05:42.221Z,16.92
2018-08-16T02:08:11.942Z,16.89
2018-08-16T02:10:41.640Z,16.85
2018-08-16T02:13:11.470Z,16.85
2018-08-16T02:15:41.224Z,16.82
2018-08-16T02:18:10.998Z,16.80
2018-08-16T02:20:40.601Z,16.78
2018-08-16T02:23:10.290Z,16.75
2018-08-16T02:25:39.922Z,16.73
2018-08-16T02:28:09.624Z,16.70
2018-08-16T02:30:39.419Z,16.69
2018-08-16T02:33:09.562Z,16.66
2018-08-16T02:35:39.199Z,16.64
2018-08-16T02:38:08.847Z,16.63
2018-08-16T02:40:38.611Z,16.61
2018-08-16T02:43:08.234Z,16.62
2018-08-16T02:45:38.116Z,16.64
2018-08-16T02:48:07.725Z,16.64
2018-08-16T02:50:37.404Z,16.64
2018-08-16T02:53:07.254Z,16.67
2018-08-16T02:55:36.958Z,16.69
2018-08-16T02:58:06.634Z,16.68
2018-08-16T03:00:36.257Z,16.65
2018-08-16T03:03:06.131Z,16.58
2018-08-16T03:05:35.787Z,16.53
2018-08-16T03:08:05.449Z,16.48
2018-08-16T03:10:35.078Z,16.46
2018-08-16T03:13:04.769Z,16.45
2018-08-16T03:15:34.743Z,16.42
2018-08-16T03:18:04.420Z,16.37
2018-08-16T03:20:34.162Z,16.36
2018-08-16T03:23:03.817Z,16.33
2018-08-16T03:25:33.417Z,16.32
2018-08-16T03:28:03.034Z,16.29
2018-08-16T03:30:32.734Z,16.28
2018-08-16T03:33:02.474Z,16.29
2018-08-16T03:35:32.123Z,16.29
2018-08-16T03:38:01.933Z,16.28
2018-08-16T03:40:31.621Z,16.28
2018-08-16T03:43:01.219Z,16.27
2018-08-16T03:45:31.057Z,16.29
2018-08-16T03:48:00.641Z,16.34
2018-08-16T03:50:30.283Z,16.40
2018-08-16T03:52:59.903Z,16.44
2018-08-16T03:55:29.602Z,16.47
2018-08-16T03:57:59.306Z,16.49
2018-08-16T04:00:28.906Z,16.51
2018-08-16T04:02:58.472Z,16.55
2018-08-16T04:05:28.100Z,16.62
2018-08-16T04:07:57.810Z,16.67
2018-08-16T04:10:27.446Z,16.71
2018-08-16T04:12:57.045Z,16.76
2018-08-16T04:15:26.663Z,16.81
2018-08-16T04:17:56.281Z,16.86
2018-08-16T04:20:25.859Z,16.92
2018-08-16T04:22:55.486Z,16.99
2018-08-16T04:25:25.175Z,17.09
2018-08-16T04:27:54.799Z,17.18
2018-08-16T04:30:24.491Z,17.51
2018-08-16T04:32:54.190Z,18.24
2018-08-16T04:35:24.047Z,19.01
2018-08-16T04:37:53.873Z,19.77
2018-08-16T04:40:23.617Z,20.41
2018-08-16T04:42:53.373Z,21.03
2018-08-16T04:45:22.982Z,21.69
2018-08-16T04:47:52.590Z,22.36
2018-08-16T04:50:22.249Z,22.97
2018-08-16T04:52:51.860Z,23.60
2018-08-16T04:55:21.601Z,24.18
2018-08-16T04:57:51.258Z,24.63
2018-08-16T05:00:20.989Z,24.95
2018-08-16T05:02:50.659Z,25.24
2018-08-16T05:05:20.370Z,25.56
2018-08-16T05:07:49.984Z,25.97
2018-08-16T05:10:19.644Z,26.31
2018-08-16T05:12:49.251Z,26.65
2018-08-16T05:15:18.984Z,26.95
2018-08-16T05:17:48.578Z,27.29
2018-08-16T05:20:18.202Z,27.62
2018-08-16T05:22:47.838Z,27.96
2018-08-16T05:25:17.441Z,28.22
2018-08-16T05:27:47.033Z,28.49
2018-08-16T05:30:16.719Z,28.73
2018-08-16T05:32:46.327Z,28.95
2018-08-16T05:35:15.924Z,29.23
2018-08-16T05:37:45.571Z,29.55
2018-08-16T05:40:15.253Z,29.79
2018-08-16T05:42:44.852Z,29.98
2018-08-16T05:45:14.524Z,30.18
2018-08-16T05:47:44.191Z,30.43
2018-08-16T05:50:13.972Z,30.80
2018-08-16T05:52:43.616Z,31.18
2018-08-16T05:55:13.230Z,31.41
2018-08-16T05:57:43.382Z,31.61
2018-08-16T06:00:14.435Z,31.93
2018-08-16T06:02:44.113Z,32.31
2018-08-16T06:05:13.838Z,32.61
2018-08-16T06:07:43.730Z,32.85
2018-08-16T06:10:13.346Z,32.96
2018-08-16T06:12:43.052Z,33.13
2018-08-16T06:15:12.753Z,33.54
2018-08-16T06:17:42.346Z,34.01
2018-08-16T06:20:12.782Z,34.27
2018-08-16T06:22:42.484Z,34.52
2018-08-16T06:25:13.894Z,34.83
2018-08-16T06:27:44.292Z,35.12
2018-08-16T06:30:17.268Z,35.25
2018-08-16T06:32:47.177Z,35.35
2018-08-16T06:35:17.019Z,35.62
2018-08-16T06:37:46.767Z,35.80
2018-08-16T06:40:17.930Z,35.90
2018-08-16T06:42:48.517Z,36.00
2018-08-16T06:45:18.263Z,36.08
2018-08-16T06:47:47.918Z,36.22
2018-08-16T06:50:17.643Z,36.28
2018-08-16T06:52:47.322Z,36.28
2018-08-16T06:55:17.103Z,36.16
2018-08-16T06:57:46.899Z,36.17
2018-08-16T07:00:16.710Z,36.18
2018-08-16T07:02:46.437Z,36.36
2018-08-16T07:05:16.326Z,36.60
2018-08-16T07:07:46.027Z,36.85
2018-08-16T07:10:15.762Z,36.77
2018-08-16T07:12:45.434Z,36.63
2018-08-16T07:15:16.277Z,36.62
2018-08-16T07:17:46.067Z,36.54
2018-08-16T07:20:15.749Z,36.29
2018-08-16T07:22:45.374Z,36.21
2018-08-16T07:25:14.962Z,36.04
2018-08-16T07:27:44.581Z,35.97
2018-08-16T07:30:14.208Z,35.80
2018-08-16T07:32:43.802Z,35.56
2018-08-16T07:35:13.493Z,35.40
2018-08-16T07:37:43.106Z,35.50
2018-08-16T07:40:12.797Z,35.98
2018-08-16T07:42:42.449Z,36.36
2018-08-16T07:45:12.425Z,36.51
2018-08-16T07:47:42.034Z,36.46
2018-08-16T07:50:12.105Z,36.23
2018-08-16T07:52:41.954Z,36.25
2018-08-16T07:55:11.918Z,36.35
2018-08-16T07:57:41.638Z,36.73
2018-08-16T08:00:17.281Z,37.02
2018-08-16T08:02:47.350Z,37.41
2018-08-16T08:05:17.025Z,37.86
2018-08-16T08:07:46.680Z,38.18
2018-08-16T08:10:16.378Z,38.21
2018-08-16T08:12:46.060Z,38.17
2018-08-16T08:15:16.225Z,38.04
2018-08-16T08:17:45.878Z,37.68
2018-08-16T08:20:16.937Z,37.46
2018-08-16T08:22:46.544Z,37.42
2018-08-16T08:25:16.372Z,37.76
2018-08-16T08:27:46.055Z,38.29
2018-08-16T08:30:17.153Z,38.25
2018-08-16T08:32:46.758Z,38.39
2018-08-16T08:35:16.543Z,38.42
2018-08-16T08:38:02.769Z,38.43
2018-08-16T08:40:32.402Z,38.90
2018-08-16T08:43:02.088Z,39.09
2018-08-16T08:45:31.767Z,38.97
2018-08-16T08:48:01.460Z,39.06
2018-08-16T08:50:31.197Z,39.20
2018-08-16T08:53:17.963Z,39.25
2018-08-16T08:56:04.560Z,39.30
2018-08-16T08:58:52.631Z,39.43
2018-08-16T09:01:22.277Z,40.02
2018-08-16T09:03:54.955Z,40.63
2018-08-16T09:06:24.602Z,40.99
2018-08-16T09:08:54.290Z,41.08
2018-08-16T09:12:39.511Z,40.89
2018-08-16T09:15:26.077Z,40.62
2018-08-16T09:17:55.688Z,41.03
2018-08-16T09:20:25.313Z,41.18
2018-08-16T09:22:54.952Z,41.27
2018-08-16T09:25:24.613Z,41.27
2018-08-16T09:27:54.263Z,40.76
2018-08-16T09:30:41.688Z,40.17
2018-08-16T09:33:28.159Z,39.72
2018-08-16T09:35:57.841Z,39.77
2018-08-16T09:38:27.435Z,40.28
2018-08-16T09:40:57.061Z,40.76
2018-08-16T09:43:26.685Z,41.28
2018-08-16T09:47:11.613Z,41.64
2018-08-16T09:49:44.106Z,41.91
2018-08-16T09:52:14.442Z,42.19
2018-08-16T09:54:44.109Z,41.99
2018-08-16T09:57:15.065Z,41.89
2018-08-16T09:59:45.314Z,41.70
2018-08-16T10:02:17.127Z,41.59
2018-08-16T10:04:46.650Z,41.85
2018-08-16T10:07:16.279Z,42.09
2018-08-16T10:09:45.937Z,42.37
2018-08-16T10:12:15.532Z,42.62
2018-08-16T10:14:45.165Z,42.28
2018-08-16T10:17:14.797Z,42.01
2018-08-16T10:19:44.485Z,42.00
2018-08-16T10:22:14.179Z,41.71
2018-08-16T10:24:43.838Z,41.33
2018-08-16T10:27:13.498Z,40.58
2018-08-16T10:29:43.256Z,40.35
2018-08-16T10:32:12.941Z,40.15
2018-08-16T10:34:42.562Z,39.96
2018-08-16T10:37:12.431Z,39.72
2018-08-16T10:39:42.027Z,39.18
2018-08-16T10:42:11.606Z,38.90
2018-08-16T10:44:41.245Z,38.18
2018-08-16T10:47:10.865Z,38.02
2018-08-16T10:49:40.492Z,38.04
2018-08-16T10:52:10.132Z,37.90
2018-08-16T10:54:39.763Z,37.26
2018-08-16T10:57:09.494Z,36.67
2018-08-16T10:59:39.097Z,36.43
2018-08-16T11:02:08.769Z,35.97
2018-08-16T11:04:38.470Z,35.50
2018-08-16T11:07:08.168Z,35.40
2018-08-16T11:09:37.782Z,35.50
2018-08-16T11:12:07.634Z,35.58
2018-08-16T11:14:37.318Z,35.40
2018-08-16T11:17:07.208Z,35.05
2018-08-16T11:19:36.830Z,34.55
2018-08-16T11:22:07.006Z,34.21
2018-08-16T11:24:36.635Z,33.70
2018-08-16T11:27:07.098Z,33.28
2018-08-16T11:29:36.706Z,32.96
2018-08-16T11:32:06.329Z,32.73
2018-08-16T11:34:36.001Z,32.19
2018-08-16T11:37:05.970Z,31.67
2018-08-16T11:39:35.550Z,31.25
2018-08-16T11:42:05.175Z,30.91
2018-08-16T11:44:34.809Z,30.74
2018-08-16T11:47:04.447Z,30.54
2018-08-16T11:49:34.055Z,30.15
2018-08-16T11:52:03.732Z,29.79
2018-08-16T11:54:33.378Z,29.51
2018-08-16T11:57:03.009Z,29.42
2018-08-16T11:59:32.603Z,29.43
2018-08-16T12:02:02.230Z,29.41
2018-08-16T12:04:31.848Z,29.41
2018-08-16T12:07:01.443Z,29.40
2018-08-16T12:09:31.054Z,29.32
2018-08-16T12:12:00.721Z,29.15
2018-08-16T12:14:30.398Z,29.05
2018-08-16T12:17:00.028Z,29.04
2018-08-16T12:19:29.707Z,29.05
2018-08-16T12:21:59.486Z,29.02
2018-08-16T12:24:29.131Z,29.07
2018-08-16T12:26:58.918Z,29.09
2018-08-16T12:29:28.602Z,29.00
2018-08-16T12:31:58.306Z,28.94
2018-08-16T12:34:27.922Z,28.97
2018-08-16T12:36:57.541Z,29.02
2018-08-16T12:39:27.142Z,29.08
2018-08-16T12:41:56.785Z,29.15
2018-08-16T12:44:26.744Z,29.12
2018-08-16T12:46:56.271Z,29.06
2018-08-16T12:49:25.910Z,28.98
2018-08-16T12:51:55.527Z,28.94
2018-08-16T12:54:25.354Z,28.89
2018-08-16T12:56:55.075Z,28.96
2018-08-16T12:59:24.834Z,29.02
2018-08-16T13:01:54.474Z,29.04
2018-08-16T13:04:24.126Z,28.96
2018-08-16T13:06:53.766Z,28.86
2018-08-16T13:09:23.447Z,28.83
2018-08-16T13:11:52.998Z,28.86
2018-08-16T13:14:22.681Z,28.88
2018-08-16T13:16:52.355Z,28.93
2018-08-16T13:19:21.937Z,29.02
2018-08-16T13:21:51.606Z,29.09
2018-08-16T13:24:21.414Z,29.12
2018-08-16T13:26:51.056Z,29.14
2018-08-16T13:29:20.637Z,29.15
2018-08-16T13:31:50.247Z,29.13
2018-08-16T13:34:19.854Z,29.13
2018-08-16T13:36:49.455Z,29.17
2018-08-16T13:39:19.049Z,29.19
2018-08-16T13:41:50.640Z,29.18
2018-08-16T13:44:20.258Z,29.16
2018-08-16T13:46:49.926Z,29.24
2018-08-16T13:49:19.541Z,29.30
2018-08-16T13:51:49.139Z,29.32
2018-08-16T13:54:18.868Z,29.32
2018-08-16T13:56:48.497Z,29.36
2018-08-16T13:59:18.127Z,29.43
2018-08-16T14:01:47.908Z,29.44
2018-08-16T14:04:17.487Z,29.35
2018-08-16T14:06:47.110Z,29.31
2018-08-16T14:09:16.698Z,29.34
2018-08-16T14:11:46.298Z,29.44
2018-08-16T14:14:15.902Z,29.50
2018-08-16T14:16:45.521Z,29.55
2018-08-16T14:19:15.151Z,29.50
2018-08-16T14:21:44.744Z,29.44
2018-08-16T14:24:14.405Z,29.45
2018-08-16T14:26:44.202Z,29.51
2018-08-16T14:29:13.928Z,29.51
2018-08-16T14:31:43.531Z,29.51
2018-08-16T14:34:13.166Z,29.49
2018-08-16T14:36:42.816Z,29.47
2018-08-16T14:39:13.188Z,29.49
2018-08-16T14:41:43.073Z,29.52
2018-08-16T14:44:12.703Z,29.50
2018-08-16T14:46:42.319Z,29.51
2018-08-16T14:49:11.955Z,29.54
2018-08-16T14:51:41.740Z,29.58
2018-08-16T14:54:11.414Z,29.58
2018-08-16T14:56:41.063Z,29.59
2018-08-16T14:59:10.702Z,29.57
2018-08-16T15:01:40.400Z,29.58
2018-08-16T15:04:10.026Z,29.58
2018-08-16T15:06:39.613Z,29.62
2018-08-16T15:09:11.852Z,29.63
2018-08-16T15:11:41.854Z,29.69
2018-08-16T15:14:11.737Z,29.72
2018-08-16T15:16:41.322Z,29.68
2018-08-16T15:19:11.099Z,29.66
2018-08-16T15:21:40.693Z,29.61
2018-08-16T15:24:10.375Z,29.55
2018-08-16T15:26:39.995Z,29.50
2018-08-16T15:29:09.585Z,29.46
2018-08-16T15:31:39.230Z,29.45
2018-08-16T15:34:09.245Z,29.49
2018-08-16T15:36:39.020Z,29.50
2018-08-16T15:39:09.810Z,29.51
2018-08-16T15:41:39.646Z,29.52
2018-08-16T15:44:10.158Z,29.50
2018-08-16T15:46:40.162Z,29.50
2018-08-16T15:49:09.788Z,29.46
2018-08-16T15:51:39.442Z,29.45
2018-08-16T15:54:09.082Z,29.44
2018-08-16T15:56:38.685Z,29.41
2018-08-16T15:59:08.575Z,29.43
2018-08-16T16:01:38.269Z,29.42
2018-08-16T16:04:08.142Z,29.40
2018-08-16T16:06:37.790Z,29.40
2018-08-16T16:09:09.934Z,29.40
2018-08-16T16:11:39.669Z,29.36
2018-08-16T16:14:09.460Z,29.37
2018-08-16T16:16:40.040Z,29.36
2018-08-16T16:19:09.659Z,29.37
2018-08-16T16:21:39.456Z,29.35
2018-08-16T16:24:09.063Z,29.32
2018-08-16T16:26:38.649Z,29.28
2018-08-16T16:29:08.267Z,29.25
2018-08-16T16:31:37.859Z,29.19
2018-08-16T16:34:08.047Z,29.14
2018-08-16T16:36:37.778Z,29.11
2018-08-16T16:39:11.383Z,29.07
2018-08-16T16:41:41.359Z,29.04
2018-08-16T16:44:10.953Z,28.99
2018-08-16T16:46:40.625Z,28.95
2018-08-16T16:49:10.253Z,28.90
2018-08-16T16:51:39.921Z,28.86
2018-08-16T16:54:09.620Z,28.80
2018-08-16T16:56:39.461Z,28.76
2018-08-16T16:59:09.148Z,28.72
2018-08-16T17:01:38.818Z,28.68
2018-08-16T17:04:08.535Z,28.65
2018-08-16T17:06:38.452Z,28.61
2018-08-16T17:09:10.718Z,28.55
2018-08-16T17:11:40.672Z,28.51
2018-08-16T17:14:10.495Z,28.47
2018-08-16T17:16:40.404Z,28.41
2018-08-16T17:19:10.293Z,28.36
2018-08-16T17:21:39.926Z,28.31
2018-08-16T17:24:09.956Z,28.25
2018-08-16T17:26:39.566Z,28.21
2018-08-16T17:29:09.453Z,28.15
2018-08-16T17:31:39.026Z,28.07
2018-08-16T17:34:08.637Z,28.02
2018-08-16T17:36:38.370Z,27.97
2018-08-16T17:39:09.083Z,27.91
2018-08-16T17:41:38.746Z,27.83
2018-08-16T17:44:08.712Z,27.74
2018-08-16T17:46:38.331Z,27.66
2018-08-16T17:49:07.950Z,27.58
2018-08-16T17:51:37.538Z,27.51
2018-08-16T17:54:07.332Z,27.42
2018-08-16T17:56:36.890Z,27.35
2018-08-16T17:59:06.581Z,27.28
2018-08-16T18:01:36.192Z,27.18
2018-08-16T18:04:05.899Z,27.08
2018-08-16T18:06:35.570Z,26.97
2018-08-16T18:09:06.967Z,26.91
2018-08-16T18:11:36.588Z,26.83
2018-08-16T18:14:06.246Z,26.76
2018-08-16T18:16:35.946Z,26.68
2018-08-16T18:19:05.703Z,26.58
2018-08-16T18:21:35.512Z,26.49
2018-08-16T18:24:05.346Z,26.39
2018-08-16T18:29:19.933Z,26.21
2018-08-16T18:31:49.917Z,26.11
2018-08-16T18:34:20.226Z,26.04
2018-08-16T18:36:49.996Z,25.95
2018-08-16T18:39:19.718Z,25.87
2018-08-16T18:41:49.310Z,25.77
2018-08-16T18:44:18.903Z,25.68
2018-08-16T18:46:48.675Z,25.61
2018-08-16T18:49:18.401Z,25.55
2018-08-16T18:51:47.985Z,25.48
2018-08-16T18:54:17.638Z,25.42
2018-08-16T18:56:47.415Z,25.40
2018-08-16T18:59:17.022Z,25.36
2018-08-16T19:01:46.661Z,25.34
2018-08-16T19:04:16.352Z,25.28
2018-08-16T19:06:45.990Z,25.22
2018-08-16T19:09:15.597Z,25.19
2018-08-16T19:11:45.210Z,25.15
2018-08-16T19:14:14.765Z,25.09
2018-08-16T19:16:44.478Z,25.06
2018-08-16T19:19:14.074Z,25.02
2018-08-16T19:21:43.893Z,24.98
2018-08-16T19:24:13.466Z,24.93
2018-08-16T19:26:43.090Z,24.86
2018-08-16T19:29:12.775Z,24.81
2018-08-16T19:31:42.366Z,24.77
2018-08-16T19:34:12.073Z,24.75
2018-08-16T19:36:41.637Z,24.70
2018-08-16T19:39:12.799Z,24.63
2018-08-16T19:41:42.397Z,24.59
2018-08-16T19:44:11.979Z,24.55
2018-08-16T19:46:41.698Z,24.50
2018-08-16T19:49:11.452Z,24.48
2018-08-16T19:51:41.098Z,24.47
2018-08-16T19:54:10.758Z,24.40
2018-08-16T19:56:40.422Z,24.31
2018-08-16T19:59:10.049Z,24.27
2018-08-16T20:01:39.775Z,24.22
2018-08-16T20:04:09.412Z,24.20
2018-08-16T20:06:39.365Z,24.15
2018-08-16T20:09:10.938Z,24.14
2018-08-16T20:11:40.560Z,24.10
2018-08-16T20:14:10.200Z,24.02
2018-08-16T20:16:39.940Z,23.96
2018-08-16T20:19:09.526Z,23.96
2018-08-16T20:21:39.134Z,23.90
2018-08-16T20:24:08.794Z,23.82
2018-08-16T20:26:38.403Z,23.80
2018-08-16T20:29:08.001Z,23.79
2018-08-16T20:31:37.632Z,23.78
2018-08-16T20:34:07.706Z,23.75
2018-08-16T20:36:37.313Z,23.73
2018-08-16T20:39:09.128Z,23.69
2018-08-16T20:41:38.734Z,23.65
2018-08-16T20:44:08.742Z,23.61
2018-08-16T20:46:38.421Z,23.59
2018-08-16T20:49:08.424Z,23.58
2018-08-16T20:51:38.270Z,23.57
2018-08-16T20:54:07.894Z,23.52
2018-08-16T20:56:37.514Z,23.48
2018-08-16T20:59:07.543Z,23.43
2018-08-16T21:01:37.152Z,23.39
2018-08-16T21:04:06.921Z,23.37
2018-08-16T21:06:36.628Z,23.32
2018-08-16T21:09:09.311Z,23.28
2018-08-16T21:11:39.314Z,23.28
2018-08-16T21:14:09.149Z,23.28
2018-08-16T21:16:38.836Z,23.28
2018-08-16T21:19:08.417Z,23.26
2018-08-16T21:21:38.045Z,23.23
2018-08-16T21:24:07.911Z,23.18
2018-08-16T21:26:37.593Z,23.17
2018-08-16T21:29:07.201Z,23.15
2018-08-16T21:31:36.960Z,23.16
2018-08-16T21:34:06.728Z,23.13
2018-08-16T21:36:36.336Z,23.09
2018-08-16T21:39:09.393Z,23.04
2018-08-16T21:41:39.213Z,22.99
2018-08-16T21:44:09.713Z,22.95
2018-08-16T21:46:39.290Z,22.88
2018-08-16T21:49:08.933Z,22.84
2018-08-16T21:51:38.594Z,22.77
2018-08-16T21:54:08.551Z,22.72
2018-08-16T21:56:38.361Z,22.67
2018-08-16T21:59:07.997Z,22.64
2018-08-16T22:01:37.609Z,22.58
2018-08-16T22:04:07.207Z,22.53
2018-08-16T22:06:53.838Z,22.49
2018-08-16T22:09:23.489Z,22.44
2018-08-16T22:11:53.073Z,22.40
2018-08-16T22:14:22.648Z,22.35
2018-08-16T22:16:52.230Z,22.30
2018-08-16T22:19:21.799Z,22.27
2018-08-16T22:21:51.389Z,22.22
2018-08-16T22:24:20.978Z,22.20
2018-08-16T22:26:50.576Z,22.15
2018-08-16T22:29:20.158Z,22.12
2018-08-16T22:31:49.705Z,22.07
2018-08-16T22:34:19.294Z,22.05
2018-08-16T22:36:48.848Z,22.02
2018-08-16T22:39:18.477Z,21.99
2018-08-16T22:41:48.035Z,21.94
2018-08-16T22:44:17.622Z,21.92
2018-08-16T22:46:47.207Z,21.89
2018-08-16T22:49:16.810Z,21.86
2018-08-16T22:51:46.433Z,21.83
2018-08-16T22:54:15.926Z,21.78
2018-08-16T22:56:45.585Z,21.74
2018-08-16T22:59:15.154Z,21.71
2018-08-16T23:01:44.782Z,21.67
2018-08-16T23:04:14.346Z,21.63
2018-08-16T23:06:43.981Z,21.61
2018-08-16T23:09:13.668Z,21.57
2018-08-16T23:11:43.246Z,21.54
2018-08-16T23:14:12.924Z,21.49
2018-08-16T23:16:42.502Z,21.45
2018-08-16T23:19:12.145Z,21.42
2018-08-16T23:21:41.702Z,21.38
2018-08-16T23:24:11.228Z,21.36
2018-08-16T23:26:40.863Z,21.32
2018-08-16T23:29:10.605Z,21.29
2018-08-16T23:31:40.333Z,21.28
2018-08-16T23:34:09.936Z,21.25
2018-08-16T23:36:39.531Z,21.22
2018-08-16T23:39:09.246Z,21.20
2018-08-16T23:41:38.837Z,21.16
2018-08-16T23:44:08.527Z,21.12
2018-08-16T23:46:38.164Z,21.10
2018-08-16T23:49:07.828Z,21.05
2018-08-16T23:51:37.437Z,21.04
2018-08-16T23:54:07.083Z,21.04
2018-08-16T23:56:36.793Z,21.03
2018-08-16T23:59:06.393Z,21.00
